createdAt,value
2023-02-19T00:00:20.885Z,96900.77
2023-02-19T00:03:13.650Z,96902.08
2023-02-19T00:05:44.251Z,96903.73
2023-02-19T00:08:14.500Z,96903.66
2023-02-19T00:10:44.794Z,96901.02
2023-02-19T00:13:16.143Z,96897.02
2023-02-19T00:15:46.293Z,96899.61
2023-02-19T00:18:16.725Z,96899.49
2023-02-19T00:20:47.333Z,96894.52
2023-02-19T00:23:17.716Z,96894.88
2023-02-19T00:25:48.132Z,96889.13
2023-02-19T00:28:19.051Z,96886.38
2023-02-19T00:30:49.370Z,96879.99
2023-02-19T00:33:19.667Z,96877.69
2023-02-19T00:35:50.421Z,96878.92
2023-02-19T00:38:20.636Z,96880.14
2023-02-19T00:40:50.852Z,96876.02
2023-02-19T00:43:22.190Z,96875.55
2023-02-19T00:45:52.966Z,96873.66
2023-02-19T00:48:23.339Z,96874.69
2023-02-19T00:50:53.471Z,96865.90
2023-02-19T00:53:24.435Z,96872.08
2023-02-19T00:55:55.027Z,96874.42
2023-02-19T00:58:25.616Z,96865.75
2023-02-19T01:00:55.980Z,96864.42
2023-02-19T01:03:26.720Z,96865.80
2023-02-19T01:05:56.994Z,96861.46
2023-02-19T01:08:28.137Z,96858.85
2023-02-19T01:10:58.515Z,96856.92
2023-02-19T01:13:29.060Z,96854.04
2023-02-19T01:16:06.263Z,96855.61
2023-02-19T01:18:37.212Z,96852.81
2023-02-19T01:21:08.929Z,96854.15
2023-02-19T01:23:39.899Z,96852.48
2023-02-19T01:26:12.558Z,96845.67
2023-02-19T01:28:43.310Z,96842.96
2023-02-19T01:31:16.638Z,96842.20
2023-02-19T01:33:47.978Z,96839.00
2023-02-19T01:36:18.535Z,96840.95
2023-02-19T01:38:49.528Z,96841.31
2023-02-19T01:41:22.578Z,96841.79
2023-02-19T01:43:59.777Z,96849.64
2023-02-19T01:46:32.407Z,96850.71
2023-02-19T01:49:05.561Z,96847.14
2023-02-19T01:51:38.928Z,96843.61
2023-02-19T01:54:11.235Z,96842.64
2023-02-19T01:56:44.309Z,96840.11
2023-02-19T01:59:15.314Z,96843.48
2023-02-19T02:01:45.693Z,96843.48
2023-02-19T02:04:17.183Z,96842.30
2023-02-19T02:06:50.506Z,96845.59
2023-02-19T02:09:40.280Z,96847.23
2023-02-19T02:12:12.554Z,96842.40
2023-02-19T02:14:45.328Z,96835.04
2023-02-19T02:17:19.530Z,96836.27
2023-02-19T02:20:21.102Z,96835.45
2023-02-19T02:22:55.595Z,96842.19
2023-02-19T02:25:41.396Z,96840.32
2023-02-19T02:28:28.096Z,96842.14
2023-02-19T02:31:03.047Z,96843.71
2023-02-19T02:33:39.372Z,96843.50
2023-02-19T02:36:15.502Z,96837.14
2023-02-19T02:38:48.651Z,96835.86
2023-02-19T02:41:18.870Z,96834.39
2023-02-19T02:43:49.133Z,96838.83
2023-02-19T02:46:23.156Z,96835.10
2023-02-19T02:48:56.268Z,96831.23
2023-02-19T02:51:29.799Z,96828.39
2023-02-19T02:54:20.527Z,96828.09
2023-02-19T02:56:51.821Z,96826.92
2023-02-19T02:59:24.479Z,96825.87
2023-02-19T03:02:12.694Z,96823.29
2023-02-19T03:05:07.590Z,96823.23
2023-02-19T03:07:39.386Z,96819.45
2023-02-19T03:10:12.783Z,96816.71
2023-02-19T03:13:01.769Z,96814.89
2023-02-19T03:15:55.693Z,96808.84
2023-02-19T03:18:46.190Z,96810.23
2023-02-19T03:21:18.434Z,96816.86
2023-02-19T03:24:06.580Z,96818.95
2023-02-19T03:26:38.847Z,96821.98
2023-02-19T03:29:26.350Z,96828.89
2023-02-19T03:31:59.997Z,96825.39
2023-02-19T03:34:33.045Z,96818.79
2023-02-19T03:37:09.995Z,96812.14
2023-02-19T03:39:46.334Z,96814.55
2023-02-19T03:42:21.684Z,96812.41
2023-02-19T03:45:10.939Z,96812.90
2023-02-19T03:47:47.982Z,96807.15
2023-02-19T03:50:18.433Z,96806.38
2023-02-19T03:52:56.650Z,96798.91
2023-02-19T03:55:31.099Z,96798.20
2023-02-19T03:58:04.993Z,96795.11
2023-02-19T04:00:39.523Z,96788.61
2023-02-19T04:03:16.327Z,96795.92
2023-02-19T04:05:50.932Z,96794.86
2023-02-19T04:08:22.910Z,96789.34
2023-02-19T04:10:54.431Z,96785.21
2023-02-19T04:13:27.180Z,96786.83
2023-02-19T04:16:01.484Z,96783.52
2023-02-19T04:18:33.999Z,96787.68
2023-02-19T04:21:05.951Z,96790.77
2023-02-19T04:23:39.257Z,96791.01
2023-02-19T04:26:10.262Z,96794.77
2023-02-19T04:28:43.075Z,96801.40
2023-02-19T04:31:14.159Z,96800.98
2023-02-19T04:33:45.356Z,96804.13
2023-02-19T04:36:15.703Z,96799.23
2023-02-19T04:38:46.806Z,96802.61
2023-02-19T04:41:18.418Z,96810.64
2023-02-19T04:43:48.581Z,96808.34
2023-02-19T04:46:19.374Z,96806.80
2023-02-19T04:48:52.097Z,96804.86
2023-02-19T04:51:22.803Z,96808.20
2023-02-19T04:53:53.273Z,96812.08
2023-02-19T04:56:24.163Z,96808.06
2023-02-19T04:58:54.372Z,96808.02
2023-02-19T05:01:24.645Z,96803.73
2023-02-19T05:03:56.194Z,96804.67
2023-02-19T05:06:30.370Z,96802.55
2023-02-19T05:09:03.079Z,96808.29
2023-02-19T05:11:33.623Z,96809.74
2023-02-19T05:14:04.323Z,96807.73
2023-02-19T05:16:36.506Z,96810.23
2023-02-19T05:19:08.202Z,96808.92
2023-02-19T05:21:41.719Z,96806.63
2023-02-19T05:24:13.885Z,96808.48
2023-02-19T05:26:45.734Z,96800.95
2023-02-19T05:29:17.070Z,96801.86
2023-02-19T05:31:48.771Z,96799.95
2023-02-19T05:34:19.196Z,96800.75
2023-02-19T05:36:50.867Z,96802.81
2023-02-19T05:39:21.499Z,96798.81
2023-02-19T05:41:52.396Z,96796.20
2023-02-19T05:44:22.991Z,96790.92
2023-02-19T05:46:53.467Z,96791.31
2023-02-19T05:49:23.979Z,96782.56
2023-02-19T05:51:55.255Z,96776.41
2023-02-19T05:54:25.493Z,96775.27
2023-02-19T05:56:55.948Z,96769.33
2023-02-19T05:59:26.963Z,96771.14
2023-02-19T06:01:58.103Z,96771.19
2023-02-19T06:04:28.704Z,96768.33
2023-02-19T06:06:59.353Z,96765.06
2023-02-19T06:09:29.632Z,96766.35
2023-02-19T06:12:00.064Z,96768.73
2023-02-19T06:14:30.555Z,96775.27
2023-02-19T06:17:01.375Z,96767.92
2023-02-19T06:19:31.646Z,96764.84
2023-02-19T06:22:02.003Z,96761.30
2023-02-19T06:24:32.605Z,96754.45
2023-02-19T06:27:02.824Z,96752.23
2023-02-19T06:29:34.169Z,96754.89
2023-02-19T06:32:04.929Z,96752.31
2023-02-19T06:34:35.891Z,96754.14
2023-02-19T06:37:06.217Z,96751.61
2023-02-19T06:39:37.971Z,96748.73
2023-02-19T06:42:08.581Z,96749.98
2023-02-19T06:44:38.812Z,96743.77
2023-02-19T06:47:09.128Z,96741.35
2023-02-19T06:49:40.576Z,96734.80
2023-02-19T06:52:11.162Z,96732.00
2023-02-19T06:54:43.711Z,96728.70
2023-02-19T06:57:14.574Z,96720.16
2023-02-19T06:59:45.461Z,96714.97
2023-02-19T07:02:15.825Z,96702.17
2023-02-19T07:04:47.184Z,96694.55
2023-02-19T07:07:17.359Z,96692.77
2023-02-19T07:09:47.802Z,96688.70
2023-02-19T07:12:18.062Z,96695.33
2023-02-19T07:14:48.666Z,96695.09
2023-02-19T07:17:19.381Z,96700.23
2023-02-19T07:19:49.927Z,96701.55
2023-02-19T07:22:20.491Z,96706.73
2023-02-19T07:24:52.271Z,96706.55
2023-02-19T07:27:22.516Z,96707.85
2023-02-19T07:29:52.864Z,96709.84
2023-02-19T07:32:23.758Z,96706.33
2023-02-19T07:34:54.333Z,96698.65
2023-02-19T07:37:25.757Z,96703.43
2023-02-19T07:39:56.327Z,96705.54
2023-02-19T07:42:28.027Z,96702.40
2023-02-19T07:45:00.719Z,96708.07
2023-02-19T07:47:31.769Z,96708.79
2023-02-19T07:50:03.116Z,96703.19
2023-02-19T07:52:37.048Z,96704.72
2023-02-19T07:55:08.437Z,96701.63
2023-02-19T07:57:39.156Z,96698.02
2023-02-19T08:00:12.272Z,96699.95
2023-02-19T08:03:00.869Z,96699.35
2023-02-19T08:05:32.901Z,96700.23
2023-02-19T08:08:03.598Z,96696.79
2023-02-19T08:10:51.426Z,96699.97
2023-02-19T08:13:25.748Z,96704.23
2023-02-19T08:16:10.902Z,96703.00
2023-02-19T08:18:47.953Z,96704.54
2023-02-19T08:21:18.652Z,96705.04
2023-02-19T08:23:51.205Z,96709.77
2023-02-19T08:26:21.961Z,96701.16
2023-02-19T08:28:52.272Z,96707.29
2023-02-19T08:31:22.707Z,96710.63
2023-02-19T08:33:53.996Z,96708.60
2023-02-19T08:36:24.608Z,96707.44
2023-02-19T08:38:55.000Z,96705.48
2023-02-19T08:41:25.364Z,96701.52
2023-02-19T08:43:56.411Z,96702.30
2023-02-19T08:46:27.299Z,96694.88
2023-02-19T08:48:57.803Z,96692.39
2023-02-19T08:51:28.073Z,96691.86
2023-02-19T08:53:59.356Z,96687.68
2023-02-19T08:56:29.731Z,96687.97
2023-02-19T08:59:00.310Z,96689.39
2023-02-19T09:01:31.373Z,96689.08
2023-02-19T09:04:02.865Z,96683.77
2023-02-19T09:06:33.181Z,96679.89
2023-02-19T09:09:03.334Z,96675.35
2023-02-19T09:11:33.563Z,96675.13
2023-02-19T09:14:07.208Z,96670.73
2023-02-19T09:16:37.694Z,96663.79
2023-02-19T09:19:08.311Z,96663.42
2023-02-19T09:21:38.386Z,96652.81
2023-02-19T09:24:10.589Z,96650.83
2023-02-19T09:26:41.183Z,96647.56
2023-02-19T09:29:12.928Z,96640.30
2023-02-19T09:31:44.286Z,96641.23
2023-02-19T09:34:14.941Z,96632.58
2023-02-19T09:36:45.833Z,96633.93
2023-02-19T09:39:16.341Z,96635.79
2023-02-19T09:41:50.207Z,96636.30
2023-02-19T09:44:26.275Z,96629.90
2023-02-19T09:46:56.816Z,96626.73
2023-02-19T09:49:34.386Z,96626.63
2023-02-19T09:52:09.992Z,96632.05
2023-02-19T09:54:40.516Z,96622.02
2023-02-19T09:57:15.667Z,96620.58
2023-02-19T09:59:49.721Z,96611.98
2023-02-19T10:02:21.907Z,96615.45
2023-02-19T10:04:52.905Z,96607.91
2023-02-19T10:07:25.871Z,96608.50
2023-02-19T10:09:57.918Z,96607.77
2023-02-19T10:12:30.648Z,96603.73
2023-02-19T10:15:05.210Z,96603.21
2023-02-19T10:17:37.116Z,96601.42
2023-02-19T10:20:10.133Z,96597.30
2023-02-19T10:22:40.725Z,96592.84
2023-02-19T10:25:15.173Z,96589.29
2023-02-19T10:27:45.746Z,96584.83
2023-02-19T10:30:23.801Z,96588.44
2023-02-19T10:33:05.847Z,96587.84
2023-02-19T10:35:38.128Z,96587.27
2023-02-19T10:38:08.732Z,96595.38
2023-02-19T10:40:46.025Z,96586.73
2023-02-19T10:43:25.514Z,96581.02
2023-02-19T10:46:03.970Z,96575.16
2023-02-19T10:48:37.234Z,96572.92
2023-02-19T10:51:12.180Z,96577.61
2023-02-19T10:53:45.312Z,96581.90
2023-02-19T10:56:23.763Z,96578.23
2023-02-19T10:58:54.879Z,96583.90
2023-02-19T11:01:26.731Z,96591.20
2023-02-19T11:04:17.093Z,96591.08
2023-02-19T11:06:47.560Z,96589.58
2023-02-19T11:09:26.411Z,96591.66
2023-02-19T11:11:59.231Z,96594.58
2023-02-19T11:14:34.227Z,96588.73
2023-02-19T11:17:06.316Z,96596.05
2023-02-19T11:19:39.987Z,96592.83
2023-02-19T11:22:31.184Z,96594.75
2023-02-19T11:25:05.606Z,96595.70
2023-02-19T11:27:36.914Z,96599.13
2023-02-19T11:30:34.463Z,96594.56
2023-02-19T11:46:23.444Z,96589.84
2023-02-19T11:49:00.567Z,96589.80
2023-02-19T11:51:44.196Z,96587.67
2023-02-19T11:54:45.467Z,96593.23
2023-02-19T11:57:33.546Z,96584.70
2023-02-19T12:00:28.404Z,96582.27
2023-02-19T12:03:36.748Z,96588.39
2023-02-19T12:06:20.531Z,96591.10
2023-02-19T12:09:21.320Z,96595.45
2023-02-19T12:12:06.110Z,96594.15
2023-02-19T12:14:56.601Z,96598.04
2023-02-19T12:17:47.372Z,96599.45
2023-02-19T12:20:31.931Z,96600.33
2023-02-19T12:23:19.425Z,96606.02
2023-02-19T12:25:59.595Z,96606.61
2023-02-19T12:34:49.474Z,96624.96
2023-02-19T12:37:36.459Z,96634.05
2023-02-19T12:40:22.447Z,96638.64
2023-02-19T12:43:10.585Z,96639.39
2023-02-19T12:45:47.276Z,96641.25
2023-02-19T12:48:36.075Z,96635.77
2023-02-19T12:51:16.581Z,96638.84
2023-02-19T12:53:58.473Z,96633.46
2023-02-19T12:56:34.820Z,96634.83
2023-02-19T12:59:12.716Z,96631.20
2023-02-19T13:01:51.209Z,96625.84
2023-02-19T13:04:34.962Z,96630.80
2023-02-19T13:07:11.969Z,96625.36
2023-02-19T13:09:53.809Z,96618.64
2023-02-19T13:12:33.093Z,96624.54
2023-02-19T13:15:14.632Z,96626.35
2023-02-19T13:18:01.639Z,96616.48
2023-02-19T13:20:41.144Z,96614.32
2023-02-19T13:23:36.204Z,96615.67
2023-02-19T13:26:27.978Z,96630.51
2023-02-19T13:29:21.104Z,96630.21
2023-02-19T13:32:12.483Z,96632.85
2023-02-19T13:34:58.335Z,96635.88
2023-02-19T13:37:39.019Z,96638.23
2023-02-19T13:40:24.779Z,96636.84
2023-02-19T13:43:02.995Z,96638.75
2023-02-19T13:45:39.795Z,96639.76
2023-02-19T13:48:30.351Z,96639.70
2023-02-19T13:51:47.093Z,96641.05
2023-02-19T13:54:29.894Z,96648.31
2023-02-19T13:57:27.301Z,96649.99
2023-02-19T14:00:01.600Z,96645.27
2023-02-19T14:02:38.558Z,96645.09
2023-02-19T14:05:10.656Z,96643.46
2023-02-19T14:07:58.762Z,96641.72
2023-02-19T14:11:02.797Z,96644.71
2023-02-19T14:14:07.185Z,96644.48
2023-02-19T14:17:18.242Z,96647.23
2023-02-19T14:19:54.732Z,96655.77
2023-02-19T14:23:06.148Z,96663.05
2023-02-19T14:25:49.150Z,96666.79
2023-02-19T14:28:27.603Z,96666.59
2023-02-19T14:31:03.531Z,96673.98
2023-02-19T14:33:38.388Z,96676.23
2023-02-19T14:36:28.500Z,96676.25
2023-02-19T14:39:07.895Z,96675.52
2023-02-19T14:41:48.969Z,96674.92
2023-02-19T14:44:25.778Z,96675.16
2023-02-19T14:47:01.794Z,96674.05
2023-02-19T14:49:43.191Z,96673.55
2023-02-19T14:52:19.691Z,96675.14
2023-02-19T14:54:55.371Z,96678.34
2023-02-19T14:57:32.764Z,96677.88
2023-02-19T15:00:22.307Z,96681.38
2023-02-19T15:02:57.990Z,96681.63
2023-02-19T15:05:38.550Z,96679.79
2023-02-19T15:08:19.117Z,96682.47
2023-02-19T15:10:53.655Z,96689.51
2023-02-19T15:13:32.829Z,96687.10
2023-02-19T15:16:06.832Z,96688.85
2023-02-19T15:18:41.725Z,96693.13
2023-02-19T15:21:25.809Z,96689.45
2023-02-19T15:24:06.369Z,96691.93
2023-02-19T15:26:42.330Z,96696.76
2023-02-19T15:29:18.212Z,96705.84
2023-02-19T15:31:54.293Z,96707.73
2023-02-19T15:34:31.265Z,96713.70
2023-02-19T15:37:11.617Z,96712.84
2023-02-19T15:39:48.459Z,96721.73
2023-02-19T15:42:27.841Z,96720.39
2023-02-19T15:45:06.644Z,96724.93
2023-02-19T15:47:44.367Z,96732.27
2023-02-19T15:50:20.883Z,96732.35
2023-02-19T15:53:02.114Z,96738.75
2023-02-19T15:55:40.897Z,96740.73
2023-02-19T15:58:26.079Z,96740.55
2023-02-19T16:01:04.816Z,96737.11
2023-02-19T16:03:41.328Z,96742.03
2023-02-19T16:06:17.221Z,96746.73
2023-02-19T16:09:22.214Z,96746.79
2023-02-19T16:12:00.271Z,96752.20
2023-02-19T16:14:37.687Z,96758.45
2023-02-19T16:17:38.332Z,96751.39
2023-02-19T16:20:33.502Z,96759.79
2023-02-19T16:23:15.044Z,96767.21
2023-02-19T16:25:52.904Z,96763.43
2023-02-19T16:28:35.719Z,96768.05
2023-02-19T16:31:18.158Z,96776.35
2023-02-19T16:33:55.042Z,96772.93
2023-02-19T16:36:38.540Z,96770.02
2023-02-19T16:39:27.392Z,96758.15
2023-02-19T16:42:20.634Z,96753.91
2023-02-19T16:44:55.052Z,96751.08
2023-02-19T16:47:38.526Z,96746.56
2023-02-19T16:50:19.265Z,96743.97
2023-02-19T16:52:56.904Z,96749.36
2023-02-19T16:55:33.044Z,96751.52
2023-02-19T16:58:09.092Z,96748.05
2023-02-19T17:00:42.670Z,96734.21
2023-02-19T17:03:19.375Z,96731.66
2023-02-19T17:05:54.115Z,96730.45
2023-02-19T17:08:40.089Z,96723.23
2023-02-19T17:11:17.500Z,96715.29
2023-02-19T17:13:51.759Z,96716.20
2023-02-19T17:16:27.569Z,96715.83
2023-02-19T17:19:01.533Z,96718.91
2023-02-19T17:21:35.243Z,96716.14
2023-02-19T17:24:09.695Z,96715.98
2023-02-19T17:26:43.308Z,96717.23
2023-02-19T17:29:19.024Z,96727.23
2023-02-19T17:31:52.793Z,96731.08
2023-02-19T17:34:27.449Z,96736.79
2023-02-19T17:37:00.898Z,96750.54
2023-02-19T17:39:34.557Z,96766.95
2023-02-19T17:42:08.773Z,96776.20
2023-02-19T17:44:42.951Z,96778.67
2023-02-19T17:47:16.876Z,96782.93
2023-02-19T17:49:53.089Z,96779.30
2023-02-19T17:52:29.767Z,96782.65
2023-02-19T17:55:03.428Z,96790.40
2023-02-19T17:57:37.169Z,96803.29
2023-02-19T18:00:17.822Z,96816.96
2023-02-19T18:02:52.090Z,96814.20
2023-02-19T18:05:27.646Z,96813.08
2023-02-19T18:08:03.100Z,96809.61
2023-02-19T18:10:36.571Z,96811.23
2023-02-19T18:13:11.780Z,96810.57
2023-02-19T18:15:45.336Z,96805.34
2023-02-19T18:18:19.309Z,96809.99
2023-02-19T18:20:54.473Z,96815.98
2023-02-19T18:23:28.302Z,96815.37
2023-02-19T18:26:02.182Z,96814.83
2023-02-19T18:28:40.945Z,96808.33
2023-02-19T18:31:15.198Z,96807.07
2023-02-19T18:33:50.479Z,96797.47
2023-02-19T18:36:26.830Z,96793.83
2023-02-19T18:39:00.805Z,96800.81
2023-02-19T18:41:36.982Z,96799.79
2023-02-19T18:44:14.323Z,96798.42
2023-02-19T18:46:52.682Z,96794.52
2023-02-19T18:49:26.512Z,96791.64
2023-02-19T18:52:02.448Z,96791.98
2023-02-19T18:54:50.471Z,96788.40
2023-02-19T18:57:33.681Z,96796.55
2023-02-19T19:00:09.500Z,96799.69
2023-02-19T19:02:54.642Z,96808.92
2023-02-19T19:05:33.913Z,96806.99
2023-02-19T19:08:09.496Z,96809.46
2023-02-19T19:10:43.971Z,96813.16
2023-02-19T19:13:31.874Z,96813.48
2023-02-19T19:16:14.467Z,96811.09
2023-02-19T19:18:50.494Z,96807.20
2023-02-19T19:21:27.252Z,96802.08
2023-02-19T19:24:02.111Z,96795.64
2023-02-19T19:26:51.536Z,96793.86
2023-02-19T19:29:26.084Z,96795.96
2023-02-19T19:32:03.328Z,96797.02
2023-02-19T19:34:40.295Z,96795.15
2023-02-19T19:37:15.418Z,96792.14
2023-02-19T19:39:49.486Z,96788.30
2023-02-19T19:42:22.908Z,96799.01
2023-02-19T19:45:01.960Z,96801.50
2023-02-19T19:47:38.137Z,96803.88
2023-02-19T19:50:22.270Z,96807.92
2023-02-19T19:53:01.862Z,96809.48
2023-02-19T19:55:41.465Z,96815.92
2023-02-19T19:58:17.301Z,96809.59
2023-02-19T20:01:04.982Z,96811.02
2023-02-19T20:03:36.798Z,96805.92
2023-02-19T20:06:11.433Z,96796.03
2023-02-19T20:08:45.181Z,96799.52
2023-02-19T20:11:23.776Z,96799.77
2023-02-19T20:13:58.949Z,96788.27
2023-02-19T20:16:35.267Z,96789.27
2023-02-19T20:19:09.676Z,96785.45
2023-02-19T20:21:43.722Z,96778.16
2023-02-19T20:24:19.813Z,96775.98
2023-02-19T20:26:53.577Z,96774.40
2023-02-19T20:29:29.833Z,96776.85
2023-02-19T20:32:04.681Z,96779.71
2023-02-19T20:34:38.560Z,96778.22
2023-02-19T20:37:12.739Z,96773.00
2023-02-19T20:39:46.969Z,96774.84
2023-02-19T20:42:23.733Z,96774.42
2023-02-19T20:44:57.674Z,96783.72
2023-02-19T20:47:32.924Z,96780.32
2023-02-19T20:50:09.271Z,96776.23
2023-02-19T20:52:45.422Z,96782.54
2023-02-19T20:55:19.880Z,96784.45
2023-02-19T20:57:53.681Z,96789.73
2023-02-19T21:00:28.122Z,96788.85
2023-02-19T21:03:01.828Z,96792.17
2023-02-19T21:05:37.792Z,96792.61
2023-02-19T21:08:12.502Z,96794.89
2023-02-19T21:10:47.943Z,96797.27
2023-02-19T21:13:22.426Z,96790.50
2023-02-19T21:15:57.638Z,96786.95
2023-02-19T21:18:32.481Z,96791.91
2023-02-19T21:21:06.943Z,96792.13
2023-02-19T21:23:42.213Z,96796.86
2023-02-19T21:26:16.242Z,96799.78
2023-02-19T21:28:52.234Z,96792.92
2023-02-19T21:31:26.390Z,96774.52
2023-02-19T21:34:00.163Z,96755.88
2023-02-19T21:36:33.732Z,96766.29
2023-02-19T21:39:07.628Z,96758.00
2023-02-19T21:41:42.128Z,96757.57
2023-02-19T21:44:16.327Z,96749.43
2023-02-19T21:46:50.667Z,96740.01
2023-02-19T21:49:24.451Z,96743.44
2023-02-19T21:51:58.546Z,96742.20
2023-02-19T21:54:32.471Z,96763.82
2023-02-19T21:57:09.890Z,96768.13
2023-02-19T21:59:45.286Z,96771.30
2023-02-19T22:02:20.334Z,96780.23
2023-02-19T22:04:58.078Z,96787.33
2023-02-19T22:07:31.929Z,96793.72
2023-02-19T22:10:08.290Z,96790.48
2023-02-19T22:12:41.796Z,96783.70
2023-02-19T22:15:15.784Z,96775.67
2023-02-19T22:17:50.121Z,96767.77
2023-02-19T22:20:24.124Z,96778.72
2023-02-19T22:22:57.529Z,96780.46
2023-02-19T22:25:31.803Z,96777.21
2023-02-19T22:28:08.050Z,96773.08
2023-02-19T22:30:43.267Z,96774.42
2023-02-19T22:33:16.939Z,96767.41
2023-02-19T22:35:50.768Z,96757.18
2023-02-19T22:38:24.236Z,96755.89
2023-02-19T22:40:59.903Z,96745.17
2023-02-19T22:43:33.873Z,96744.89
2023-02-19T22:46:10.398Z,96741.86
2023-02-19T22:48:44.435Z,96753.11
2023-02-19T22:51:19.115Z,96757.16
2023-02-19T22:53:54.397Z,96767.61
2023-02-19T22:56:29.370Z,96779.07
2023-02-19T22:59:03.108Z,96779.31
2023-02-19T23:01:37.059Z,96798.95
2023-02-19T23:04:10.718Z,96796.38
2023-02-19T23:06:45.860Z,96794.44
2023-02-19T23:09:24.179Z,96779.44
2023-02-19T23:12:05.330Z,96781.09
2023-02-19T23:14:38.894Z,96763.05
2023-02-19T23:17:13.059Z,96756.73
2023-02-19T23:19:46.634Z,96767.48
2023-02-19T23:22:22.340Z,96760.44
2023-02-19T23:24:56.305Z,96764.63
2023-02-19T23:27:30.540Z,96764.58
2023-02-19T23:30:04.111Z,96763.15
2023-02-19T23:32:37.787Z,96764.61
2023-02-19T23:35:14.198Z,96768.61
2023-02-19T23:37:49.253Z,96760.70
2023-02-19T23:40:23.589Z,96755.92
2023-02-19T23:42:59.064Z,96750.08
2023-02-19T23:45:32.559Z,96755.79
2023-02-19T23:48:06.391Z,96745.79
2023-02-19T23:50:41.912Z,96747.73
2023-02-19T23:53:16.599Z,96756.90
2023-02-19T23:55:50.537Z,96743.33
2023-02-19T23:58:26.079Z,96730.79
